sensor_id;sensor_type;location;lat;lon;timestamp;P1;durP1;ratioP1;P2;durP2;ratioP2
21626;SDS011;10975;47.872;12.972;2024-01-10T00:00:15;42.70;;;22.77;;
21626;SDS011;10975;47.872;12.972;2024-01-10T00:02:42;43.38;;;21.15;;
21626;SDS011;10975;47.872;12.972;2024-01-10T00:05:08;46.63;;;21.85;;
21626;SDS011;10975;47.872;12.972;2024-01-10T00:07:35;44.78;;;21.45;;
21626;SDS011;10975;47.872;12.972;2024-01-10T00:10:03;46.00;;;23.45;;
21626;SDS011;10975;47.872;12.972;2024-01-10T00:12:30;41.13;;;22.02;;
21626;SDS011;10975;47.872;12.972;2024-01-10T00:15:05;47.80;;;22.52;;
21626;SDS011;10975;47.872;12.972;2024-01-10T00:17:32;42.47;;;21.83;;
21626;SDS011;10975;47.872;12.972;2024-01-10T00:20:00;41.58;;;22.30;;
21626;SDS011;10975;47.872;12.972;2024-01-10T00:22:26;47.95;;;24.00;;
21626;SDS011;10975;47.872;12.972;2024-01-10T00:24:53;39.17;;;20.42;;
21626;SDS011;10975;47.872;12.972;2024-01-10T00:27:20;52.58;;;22.30;;
21626;SDS011;10975;47.872;12.972;2024-01-10T00:29:48;48.33;;;22.05;;
21626;SDS011;10975;47.872;12.972;2024-01-10T00:32:15;51.15;;;23.27;;
21626;SDS011;10975;47.872;12.972;2024-01-10T00:34:42;45.28;;;23.35;;
21626;SDS011;10975;47.872;12.972;2024-01-10T00:37:09;42.70;;;22.50;;
21626;SDS011;10975;47.872;12.972;2024-01-10T00:39:35;47.78;;;23.85;;
21626;SDS011;10975;47.872;12.972;2024-01-10T00:42:02;43.40;;;24.17;;
21626;SDS011;10975;47.872;12.972;2024-01-10T00:44:29;46.58;;;24.67;;
21626;SDS011;10975;47.872;12.972;2024-01-10T00:46:56;41.67;;;22.90;;
21626;SDS011;10975;47.872;12.972;2024-01-10T00:49:23;45.40;;;23.75;;
21626;SDS011;10975;47.872;12.972;2024-01-10T00:51:50;50.03;;;24.50;;
21626;SDS011;10975;47.872;12.972;2024-01-10T00:54:17;44.10;;;22.73;;
21626;SDS011;10975;47.872;12.972;2024-01-10T00:56:44;42.40;;;22.75;;
21626;SDS011;10975;47.872;12.972;2024-01-10T00:59:11;44.22;;;23.52;;
21626;SDS011;10975;47.872;12.972;2024-01-10T01:01:38;46.63;;;23.60;;
21626;SDS011;10975;47.872;12.972;2024-01-10T01:04:05;50.22;;;23.00;;
21626;SDS011;10975;47.872;12.972;2024-01-10T01:06:31;52.40;;;25.15;;
21626;SDS011;10975;47.872;12.972;2024-01-10T01:08:58;51.80;;;24.55;;
21626;SDS011;10975;47.872;12.972;2024-01-10T01:11:25;47.70;;;24.17;;
21626;SDS011;10975;47.872;12.972;2024-01-10T01:13:52;47.47;;;23.25;;
21626;SDS011;10975;47.872;12.972;2024-01-10T01:16:19;47.00;;;24.17;;
21626;SDS011;10975;47.872;12.972;2024-01-10T01:18:46;53.33;;;24.20;;
21626;SDS011;10975;47.872;12.972;2024-01-10T01:21:13;41.63;;;23.05;;
21626;SDS011;10975;47.872;12.972;2024-01-10T01:23:40;52.10;;;23.52;;
21626;SDS011;10975;47.872;12.972;2024-01-10T01:26:08;43.80;;;22.27;;
21626;SDS011;10975;47.872;12.972;2024-01-10T01:28:35;49.13;;;24.88;;
21626;SDS011;10975;47.872;12.972;2024-01-10T01:31:02;43.10;;;22.13;;
21626;SDS011;10975;47.872;12.972;2024-01-10T01:33:29;41.05;;;22.30;;
21626;SDS011;10975;47.872;12.972;2024-01-10T01:35:56;45.28;;;22.85;;
21626;SDS011;10975;47.872;12.972;2024-01-10T01:38:23;40.65;;;21.67;;
21626;SDS011;10975;47.872;12.972;2024-01-10T01:40:50;50.90;;;23.88;;
21626;SDS011;10975;47.872;12.972;2024-01-10T01:43:22;49.72;;;23.52;;
21626;SDS011;10975;47.872;12.972;2024-01-10T01:45:51;42.53;;;22.10;;
21626;SDS011;10975;47.872;12.972;2024-01-10T01:48:20;50.78;;;22.77;;
21626;SDS011;10975;47.872;12.972;2024-01-10T01:50:49;44.45;;;24.40;;
21626;SDS011;10975;47.872;12.972;2024-01-10T01:53:18;44.28;;;22.00;;
21626;SDS011;10975;47.872;12.972;2024-01-10T01:55:46;45.15;;;23.45;;
21626;SDS011;10975;47.872;12.972;2024-01-10T01:58:13;42.50;;;22.33;;
21626;SDS011;10975;47.872;12.972;2024-01-10T02:00:40;46.63;;;23.77;;
21626;SDS011;10975;47.872;12.972;2024-01-10T02:03:08;44.25;;;22.35;;
21626;SDS011;10975;47.872;12.972;2024-01-10T02:05:36;46.35;;;23.17;;
21626;SDS011;10975;47.872;12.972;2024-01-10T02:08:04;39.13;;;21.85;;
21626;SDS011;10975;47.872;12.972;2024-01-10T02:10:31;49.25;;;23.88;;
21626;SDS011;10975;47.872;12.972;2024-01-10T02:12:58;47.05;;;22.08;;
21626;SDS011;10975;47.872;12.972;2024-01-10T02:15:25;46.95;;;22.67;;
21626;SDS011;10975;47.872;12.972;2024-01-10T02:17:52;44.63;;;24.13;;
21626;SDS011;10975;47.872;12.972;2024-01-10T02:20:19;39.33;;;20.98;;
21626;SDS011;10975;47.872;12.972;2024-01-10T02:22:47;47.70;;;23.55;;
21626;SDS011;10975;47.872;12.972;2024-01-10T02:25:17;49.53;;;23.17;;
21626;SDS011;10975;47.872;12.972;2024-01-10T02:27:44;44.55;;;21.10;;
21626;SDS011;10975;47.872;12.972;2024-01-10T02:30:11;47.45;;;23.20;;
21626;SDS011;10975;47.872;12.972;2024-01-10T02:32:38;48.00;;;23.73;;
21626;SDS011;10975;47.872;12.972;2024-01-10T02:35:05;49.80;;;24.75;;
21626;SDS011;10975;47.872;12.972;2024-01-10T02:37:33;46.17;;;23.50;;
21626;SDS011;10975;47.872;12.972;2024-01-10T02:40:00;44.50;;;23.33;;
21626;SDS011;10975;47.872;12.972;2024-01-10T02:42:27;50.75;;;24.10;;
21626;SDS011;10975;47.872;12.972;2024-01-10T02:44:55;46.35;;;23.60;;
21626;SDS011;10975;47.872;12.972;2024-01-10T02:47:22;43.63;;;22.10;;
21626;SDS011;10975;47.872;12.972;2024-01-10T02:49:49;49.53;;;23.70;;
21626;SDS011;10975;47.872;12.972;2024-01-10T02:52:16;49.30;;;25.67;;
21626;SDS011;10975;47.872;12.972;2024-01-10T02:54:42;44.13;;;22.45;;
21626;SDS011;10975;47.872;12.972;2024-01-10T02:57:09;46.15;;;23.23;;
21626;SDS011;10975;47.872;12.972;2024-01-10T02:59:36;48.75;;;22.67;;
21626;SDS011;10975;47.872;12.972;2024-01-10T03:02:03;43.42;;;23.08;;
21626;SDS011;10975;47.872;12.972;2024-01-10T03:04:30;50.92;;;25.17;;
21626;SDS011;10975;47.872;12.972;2024-01-10T03:06:57;55.53;;;25.20;;
21626;SDS011;10975;47.872;12.972;2024-01-10T03:09:24;45.78;;;24.58;;
21626;SDS011;10975;47.872;12.972;2024-01-10T03:11:51;44.97;;;23.98;;
21626;SDS011;10975;47.872;12.972;2024-01-10T03:14:17;46.15;;;23.90;;
21626;SDS011;10975;47.872;12.972;2024-01-10T03:16:44;49.38;;;25.60;;
21626;SDS011;10975;47.872;12.972;2024-01-10T03:19:12;47.08;;;23.67;;
21626;SDS011;10975;47.872;12.972;2024-01-10T03:21:39;42.83;;;22.67;;
21626;SDS011;10975;47.872;12.972;2024-01-10T03:24:06;49.63;;;24.65;;
21626;SDS011;10975;47.872;12.972;2024-01-10T03:26:33;50.10;;;24.77;;
21626;SDS011;10975;47.872;12.972;2024-01-10T03:29:00;50.15;;;24.60;;
21626;SDS011;10975;47.872;12.972;2024-01-10T03:31:28;45.22;;;23.33;;
21626;SDS011;10975;47.872;12.972;2024-01-10T03:33:56;58.47;;;25.65;;
21626;SDS011;10975;47.872;12.972;2024-01-10T03:36:24;44.83;;;23.55;;
21626;SDS011;10975;47.872;12.972;2024-01-10T03:38:52;49.28;;;24.13;;
21626;SDS011;10975;47.872;12.972;2024-01-10T03:41:19;47.83;;;24.75;;
21626;SDS011;10975;47.872;12.972;2024-01-10T03:43:47;48.97;;;24.77;;
21626;SDS011;10975;47.872;12.972;2024-01-10T03:46:15;51.47;;;25.60;;
21626;SDS011;10975;47.872;12.972;2024-01-10T03:48:43;51.13;;;25.30;;
21626;SDS011;10975;47.872;12.972;2024-01-10T03:51:18;48.65;;;24.05;;
21626;SDS011;10975;47.872;12.972;2024-01-10T03:53:45;52.10;;;25.65;;
21626;SDS011;10975;47.872;12.972;2024-01-10T03:56:12;48.97;;;23.02;;
21626;SDS011;10975;47.872;12.972;2024-01-10T03:58:39;49.70;;;25.48;;
21626;SDS011;10975;47.872;12.972;2024-01-10T04:01:07;46.50;;;24.23;;
21626;SDS011;10975;47.872;12.972;2024-01-10T04:03:35;51.28;;;25.38;;
21626;SDS011;10975;47.872;12.972;2024-01-10T04:06:02;52.33;;;25.15;;
21626;SDS011;10975;47.872;12.972;2024-01-10T04:08:29;52.78;;;26.45;;
21626;SDS011;10975;47.872;12.972;2024-01-10T04:10:56;54.03;;;26.73;;
21626;SDS011;10975;47.872;12.972;2024-01-10T04:13:24;52.28;;;25.65;;
21626;SDS011;10975;47.872;12.972;2024-01-10T04:15:51;58.97;;;28.33;;
21626;SDS011;10975;47.872;12.972;2024-01-10T04:18:19;55.88;;;27.50;;
21626;SDS011;10975;47.872;12.972;2024-01-10T04:20:47;62.60;;;28.50;;
21626;SDS011;10975;47.872;12.972;2024-01-10T04:23:15;59.10;;;27.27;;
21626;SDS011;10975;47.872;12.972;2024-01-10T04:25:42;61.58;;;27.30;;
21626;SDS011;10975;47.872;12.972;2024-01-10T04:28:09;68.65;;;27.80;;
21626;SDS011;10975;47.872;12.972;2024-01-10T04:30:36;58.08;;;26.25;;
21626;SDS011;10975;47.872;12.972;2024-01-10T04:33:03;59.03;;;24.70;;
21626;SDS011;10975;47.872;12.972;2024-01-10T04:35:30;55.45;;;23.08;;
21626;SDS011;10975;47.872;12.972;2024-01-10T04:37:57;50.30;;;20.35;;
21626;SDS011;10975;47.872;12.972;2024-01-10T04:40:24;64.00;;;22.15;;
21626;SDS011;10975;47.872;12.972;2024-01-10T04:42:51;56.80;;;21.42;;
21626;SDS011;10975;47.872;12.972;2024-01-10T04:45:18;55.60;;;21.73;;
21626;SDS011;10975;47.872;12.972;2024-01-10T04:47:45;60.63;;;23.38;;
21626;SDS011;10975;47.872;12.972;2024-01-10T04:50:12;57.90;;;22.27;;
21626;SDS011;10975;47.872;12.972;2024-01-10T04:52:40;59.42;;;23.33;;
21626;SDS011;10975;47.872;12.972;2024-01-10T04:55:07;62.25;;;22.50;;
21626;SDS011;10975;47.872;12.972;2024-01-10T04:57:35;69.10;;;24.13;;
21626;SDS011;10975;47.872;12.972;2024-01-10T05:00:02;66.75;;;24.92;;
21626;SDS011;10975;47.872;12.972;2024-01-10T05:02:31;55.20;;;20.23;;
21626;SDS011;10975;47.872;12.972;2024-01-10T05:04:58;42.00;;;16.05;;
21626;SDS011;10975;47.872;12.972;2024-01-10T05:07:25;53.80;;;20.80;;
21626;SDS011;10975;47.872;12.972;2024-01-10T05:09:52;59.22;;;22.25;;
21626;SDS011;10975;47.872;12.972;2024-01-10T05:12:19;56.28;;;22.40;;
21626;SDS011;10975;47.872;12.972;2024-01-10T05:14:46;48.47;;;18.92;;
21626;SDS011;10975;47.872;12.972;2024-01-10T05:17:13;61.83;;;20.98;;
21626;SDS011;10975;47.872;12.972;2024-01-10T05:19:40;62.47;;;23.20;;
21626;SDS011;10975;47.872;12.972;2024-01-10T05:22:07;63.55;;;23.33;;
21626;SDS011;10975;47.872;12.972;2024-01-10T05:24:34;57.47;;;24.02;;
21626;SDS011;10975;47.872;12.972;2024-01-10T05:27:02;63.08;;;23.35;;
21626;SDS011;10975;47.872;12.972;2024-01-10T05:29:29;58.15;;;22.92;;
21626;SDS011;10975;47.872;12.972;2024-01-10T05:31:56;58.20;;;23.10;;
21626;SDS011;10975;47.872;12.972;2024-01-10T05:34:23;59.97;;;23.35;;
21626;SDS011;10975;47.872;12.972;2024-01-10T05:36:50;61.30;;;22.15;;
21626;SDS011;10975;47.872;12.972;2024-01-10T05:39:17;65.88;;;23.98;;
21626;SDS011;10975;47.872;12.972;2024-01-10T05:41:47;68.22;;;23.02;;
21626;SDS011;10975;47.872;12.972;2024-01-10T05:44:14;64.70;;;25.00;;
21626;SDS011;10975;47.872;12.972;2024-01-10T05:46:41;59.28;;;24.58;;
21626;SDS011;10975;47.872;12.972;2024-01-10T05:49:11;63.08;;;24.80;;
21626;SDS011;10975;47.872;12.972;2024-01-10T05:51:38;63.30;;;23.70;;
21626;SDS011;10975;47.872;12.972;2024-01-10T05:54:05;58.40;;;22.67;;
21626;SDS011;10975;47.872;12.972;2024-01-10T05:56:33;63.63;;;22.58;;
21626;SDS011;10975;47.872;12.972;2024-01-10T05:59:00;62.30;;;24.80;;
21626;SDS011;10975;47.872;12.972;2024-01-10T06:01:27;57.28;;;22.95;;
21626;SDS011;10975;47.872;12.972;2024-01-10T06:03:55;62.22;;;23.35;;
21626;SDS011;10975;47.872;12.972;2024-01-10T06:06:22;62.30;;;24.30;;
21626;SDS011;10975;47.872;12.972;2024-01-10T06:08:50;61.40;;;24.50;;
21626;SDS011;10975;47.872;12.972;2024-01-10T06:11:17;61.28;;;24.38;;
21626;SDS011;10975;47.872;12.972;2024-01-10T06:13:44;64.07;;;25.50;;
21626;SDS011;10975;47.872;12.972;2024-01-10T06:16:22;62.33;;;25.95;;
21626;SDS011;10975;47.872;12.972;2024-01-10T06:18:49;63.60;;;24.92;;
21626;SDS011;10975;47.872;12.972;2024-01-10T06:21:16;60.72;;;24.02;;
21626;SDS011;10975;47.872;12.972;2024-01-10T06:23:42;64.68;;;25.30;;
21626;SDS011;10975;47.872;12.972;2024-01-10T06:26:09;63.05;;;25.23;;
21626;SDS011;10975;47.872;12.972;2024-01-10T06:28:37;72.72;;;25.80;;
21626;SDS011;10975;47.872;12.972;2024-01-10T06:31:05;71.38;;;26.52;;
21626;SDS011;10975;47.872;12.972;2024-01-10T06:33:36;58.67;;;24.02;;
21626;SDS011;10975;47.872;12.972;2024-01-10T06:36:03;67.85;;;24.50;;
21626;SDS011;10975;47.872;12.972;2024-01-10T06:38:30;60.80;;;23.67;;
21626;SDS011;10975;47.872;12.972;2024-01-10T06:40:56;66.22;;;24.80;;
21626;SDS011;10975;47.872;12.972;2024-01-10T06:43:23;63.45;;;24.83;;
21626;SDS011;10975;47.872;12.972;2024-01-10T06:45:50;66.78;;;25.52;;
21626;SDS011;10975;47.872;12.972;2024-01-10T06:48:17;68.28;;;27.08;;
21626;SDS011;10975;47.872;12.972;2024-01-10T06:50:45;67.47;;;25.45;;
21626;SDS011;10975;47.872;12.972;2024-01-10T06:53:12;64.80;;;25.13;;
21626;SDS011;10975;47.872;12.972;2024-01-10T06:55:40;70.03;;;27.25;;
21626;SDS011;10975;47.872;12.972;2024-01-10T06:58:07;69.93;;;26.70;;
21626;SDS011;10975;47.872;12.972;2024-01-10T07:00:34;65.22;;;24.30;;
21626;SDS011;10975;47.872;12.972;2024-01-10T07:03:01;63.25;;;23.83;;
21626;SDS011;10975;47.872;12.972;2024-01-10T07:05:29;70.00;;;26.77;;
21626;SDS011;10975;47.872;12.972;2024-01-10T07:07:58;65.25;;;24.90;;
21626;SDS011;10975;47.872;12.972;2024-01-10T07:10:25;79.90;;;27.67;;
21626;SDS011;10975;47.872;12.972;2024-01-10T07:12:54;69.43;;;26.88;;
21626;SDS011;10975;47.872;12.972;2024-01-10T07:15:21;70.03;;;26.40;;
21626;SDS011;10975;47.872;12.972;2024-01-10T07:17:48;94.00;;;29.98;;
21626;SDS011;10975;47.872;12.972;2024-01-10T07:20:15;81.05;;;28.65;;
21626;SDS011;10975;47.872;12.972;2024-01-10T07:22:42;83.60;;;29.58;;
21626;SDS011;10975;47.872;12.972;2024-01-10T07:25:11;85.72;;;30.73;;
21626;SDS011;10975;47.872;12.972;2024-01-10T07:27:41;86.95;;;30.15;;
21626;SDS011;10975;47.872;12.972;2024-01-10T07:30:08;84.47;;;30.35;;
21626;SDS011;10975;47.872;12.972;2024-01-10T07:32:42;88.70;;;34.17;;
21626;SDS011;10975;47.872;12.972;2024-01-10T07:35:11;84.07;;;29.90;;
21626;SDS011;10975;47.872;12.972;2024-01-10T07:37:40;86.90;;;30.95;;
21626;SDS011;10975;47.872;12.972;2024-01-10T07:40:09;80.72;;;32.78;;
21626;SDS011;10975;47.872;12.972;2024-01-10T07:42:37;79.60;;;31.35;;
21626;SDS011;10975;47.872;12.972;2024-01-10T07:45:06;85.40;;;31.73;;
21626;SDS011;10975;47.872;12.972;2024-01-10T07:47:34;83.82;;;30.10;;
21626;SDS011;10975;47.872;12.972;2024-01-10T07:50:05;72.00;;;30.10;;
21626;SDS011;10975;47.872;12.972;2024-01-10T07:52:33;91.68;;;32.05;;
21626;SDS011;10975;47.872;12.972;2024-01-10T07:55:00;76.07;;;29.40;;
21626;SDS011;10975;47.872;12.972;2024-01-10T07:57:27;86.40;;;31.85;;
21626;SDS011;10975;47.872;12.972;2024-01-10T07:59:54;91.13;;;31.08;;
21626;SDS011;10975;47.872;12.972;2024-01-10T08:02:21;88.10;;;30.65;;
21626;SDS011;10975;47.872;12.972;2024-01-10T08:04:48;86.75;;;31.58;;
21626;SDS011;10975;47.872;12.972;2024-01-10T08:07:15;85.40;;;32.58;;
21626;SDS011;10975;47.872;12.972;2024-01-10T08:09:42;86.93;;;31.90;;
21626;SDS011;10975;47.872;12.972;2024-01-10T08:12:09;76.75;;;30.08;;
21626;SDS011;10975;47.872;12.972;2024-01-10T08:14:38;79.57;;;34.80;;
21626;SDS011;10975;47.872;12.972;2024-01-10T08:17:05;80.30;;;31.77;;
21626;SDS011;10975;47.872;12.972;2024-01-10T08:19:33;76.55;;;29.17;;
21626;SDS011;10975;47.872;12.972;2024-01-10T08:22:00;73.72;;;28.08;;
21626;SDS011;10975;47.872;12.972;2024-01-10T08:24:27;72.80;;;27.80;;
21626;SDS011;10975;47.872;12.972;2024-01-10T08:26:54;75.32;;;29.27;;
21626;SDS011;10975;47.872;12.972;2024-01-10T08:29:21;72.53;;;28.80;;
21626;SDS011;10975;47.872;12.972;2024-01-10T08:31:48;68.68;;;27.02;;
21626;SDS011;10975;47.872;12.972;2024-01-10T08:34:15;64.18;;;28.05;;
21626;SDS011;10975;47.872;12.972;2024-01-10T08:36:42;71.95;;;29.10;;
21626;SDS011;10975;47.872;12.972;2024-01-10T08:39:08;72.53;;;29.55;;
21626;SDS011;10975;47.872;12.972;2024-01-10T08:41:37;69.90;;;29.08;;
21626;SDS011;10975;47.872;12.972;2024-01-10T08:46:39;61.33;;;26.23;;
21626;SDS011;10975;47.872;12.972;2024-01-10T08:49:06;70.30;;;30.00;;
21626;SDS011;10975;47.872;12.972;2024-01-10T08:51:33;65.95;;;29.02;;
21626;SDS011;10975;47.872;12.972;2024-01-10T08:54:00;67.93;;;27.15;;
21626;SDS011;10975;47.872;12.972;2024-01-10T08:56:27;60.53;;;26.98;;
21626;SDS011;10975;47.872;12.972;2024-01-10T08:58:54;55.40;;;25.83;;
21626;SDS011;10975;47.872;12.972;2024-01-10T09:01:21;65.53;;;27.20;;
21626;SDS011;10975;47.872;12.972;2024-01-10T09:03:49;64.50;;;28.00;;
21626;SDS011;10975;47.872;12.972;2024-01-10T09:06:16;64.70;;;29.00;;
21626;SDS011;10975;47.872;12.972;2024-01-10T09:08:43;106.60;;;46.95;;
21626;SDS011;10975;47.872;12.972;2024-01-10T09:11:10;242.23;;;102.68;;
21626;SDS011;10975;47.872;12.972;2024-01-10T09:13:37;61.30;;;31.02;;
21626;SDS011;10975;47.872;12.972;2024-01-10T09:16:06;64.38;;;26.20;;
21626;SDS011;10975;47.872;12.972;2024-01-10T09:18:33;89.80;;;45.60;;
21626;SDS011;10975;47.872;12.972;2024-01-10T09:21:00;77.57;;;42.15;;
21626;SDS011;10975;47.872;12.972;2024-01-10T09:23:26;65.10;;;30.73;;
21626;SDS011;10975;47.872;12.972;2024-01-10T09:25:54;96.78;;;52.83;;
21626;SDS011;10975;47.872;12.972;2024-01-10T09:28:21;106.22;;;49.85;;
21626;SDS011;10975;47.872;12.972;2024-01-10T09:30:48;86.97;;;40.95;;
21626;SDS011;10975;47.872;12.972;2024-01-10T09:33:15;83.10;;;34.50;;
21626;SDS011;10975;47.872;12.972;2024-01-10T09:35:42;97.55;;;48.35;;
21626;SDS011;10975;47.872;12.972;2024-01-10T09:38:09;72.88;;;31.60;;
21626;SDS011;10975;47.872;12.972;2024-01-10T09:40:36;91.40;;;42.88;;
21626;SDS011;10975;47.872;12.972;2024-01-10T09:43:04;74.75;;;32.17;;
21626;SDS011;10975;47.872;12.972;2024-01-10T09:45:34;83.47;;;31.58;;
21626;SDS011;10975;47.872;12.972;2024-01-10T09:48:03;80.07;;;34.05;;
21626;SDS011;10975;47.872;12.972;2024-01-10T09:50:30;83.45;;;34.42;;
21626;SDS011;10975;47.872;12.972;2024-01-10T09:53:06;82.78;;;35.10;;
21626;SDS011;10975;47.872;12.972;2024-01-10T09:55:36;89.20;;;36.60;;
21626;SDS011;10975;47.872;12.972;2024-01-10T09:58:06;86.03;;;34.25;;
21626;SDS011;10975;47.872;12.972;2024-01-10T10:00:35;78.43;;;33.15;;
21626;SDS011;10975;47.872;12.972;2024-01-10T10:03:09;85.18;;;34.53;;
21626;SDS011;10975;47.872;12.972;2024-01-10T10:05:39;88.88;;;40.72;;
21626;SDS011;10975;47.872;12.972;2024-01-10T10:08:10;86.93;;;39.10;;
21626;SDS011;10975;47.872;12.972;2024-01-10T10:10:49;84.65;;;34.85;;
21626;SDS011;10975;47.872;12.972;2024-01-10T10:13:26;82.40;;;34.45;;
21626;SDS011;10975;47.872;12.972;2024-01-10T10:15:58;89.00;;;35.53;;
21626;SDS011;10975;47.872;12.972;2024-01-10T10:18:28;84.22;;;34.25;;
21626;SDS011;10975;47.872;12.972;2024-01-10T10:23:42;84.68;;;34.60;;
21626;SDS011;10975;47.872;12.972;2024-01-10T10:26:23;84.78;;;34.60;;
21626;SDS011;10975;47.872;12.972;2024-01-10T10:28:50;80.50;;;32.35;;
21626;SDS011;10975;47.872;12.972;2024-01-10T10:31:18;79.97;;;33.67;;
21626;SDS011;10975;47.872;12.972;2024-01-10T10:33:47;84.30;;;33.20;;
21626;SDS011;10975;47.872;12.972;2024-01-10T10:36:15;84.25;;;34.45;;
21626;SDS011;10975;47.872;12.972;2024-01-10T10:38:42;81.78;;;34.13;;
21626;SDS011;10975;47.872;12.972;2024-01-10T10:41:09;82.20;;;33.40;;
21626;SDS011;10975;47.872;12.972;2024-01-10T10:43:37;82.85;;;34.80;;
21626;SDS011;10975;47.872;12.972;2024-01-10T10:46:06;79.47;;;32.33;;
21626;SDS011;10975;47.872;12.972;2024-01-10T10:48:36;81.43;;;33.80;;
21626;SDS011;10975;47.872;12.972;2024-01-10T10:51:37;80.85;;;32.88;;
21626;SDS011;10975;47.872;12.972;2024-01-10T10:54:00;74.53;;;31.42;;
21626;SDS011;10975;47.872;12.972;2024-01-10T10:56:29;70.00;;;29.85;;
21626;SDS011;10975;47.872;12.972;2024-01-10T10:58:59;74.75;;;30.58;;
21626;SDS011;10975;47.872;12.972;2024-01-10T11:01:27;74.35;;;31.83;;
21626;SDS011;10975;47.872;12.972;2024-01-10T11:03:55;77.50;;;31.38;;
21626;SDS011;10975;47.872;12.972;2024-01-10T11:06:23;69.38;;;30.45;;
21626;SDS011;10975;47.872;12.972;2024-01-10T11:08:52;75.30;;;31.88;;
21626;SDS011;10975;47.872;12.972;2024-01-10T11:20:39;82.32;;;31.95;;
21626;SDS011;10975;47.872;12.972;2024-01-10T11:23:42;68.35;;;25.58;;
21626;SDS011;10975;47.872;12.972;2024-01-10T11:26:13;79.85;;;32.20;;
21626;SDS011;10975;47.872;12.972;2024-01-10T11:28:41;79.30;;;33.00;;
21626;SDS011;10975;47.872;12.972;2024-01-10T11:31:08;71.30;;;30.92;;
21626;SDS011;10975;47.872;12.972;2024-01-10T11:33:36;68.07;;;29.75;;
21626;SDS011;10975;47.872;12.972;2024-01-10T11:38:41;69.80;;;28.48;;
21626;SDS011;10975;47.872;12.972;2024-01-10T11:41:33;72.53;;;26.80;;
21626;SDS011;10975;47.872;12.972;2024-01-10T11:46:38;67.30;;;28.75;;
21626;SDS011;10975;47.872;12.972;2024-01-10T11:49:09;38.33;;;18.00;;
21626;SDS011;10975;47.872;12.972;2024-01-10T11:51:38;64.63;;;27.40;;
21626;SDS011;10975;47.872;12.972;2024-01-10T11:54:12;77.68;;;29.58;;
21626;SDS011;10975;47.872;12.972;2024-01-10T11:57:02;65.22;;;27.10;;
21626;SDS011;10975;47.872;12.972;2024-01-10T11:59:29;75.32;;;30.52;;
21626;SDS011;10975;47.872;12.972;2024-01-10T12:01:57;75.53;;;32.08;;
21626;SDS011;10975;47.872;12.972;2024-01-10T12:04:25;67.80;;;28.55;;
21626;SDS011;10975;47.872;12.972;2024-01-10T12:07:11;71.07;;;30.75;;
21626;SDS011;10975;47.872;12.972;2024-01-10T12:09:39;68.93;;;24.38;;
21626;SDS011;10975;47.872;12.972;2024-01-10T12:12:08;72.72;;;28.65;;
21626;SDS011;10975;47.872;12.972;2024-01-10T12:14:36;66.70;;;25.48;;
21626;SDS011;10975;47.872;12.972;2024-01-10T12:17:03;82.30;;;31.75;;
21626;SDS011;10975;47.872;12.972;2024-01-10T12:19:34;75.15;;;31.63;;
21626;SDS011;10975;47.872;12.972;2024-01-10T12:22:03;81.70;;;33.55;;
21626;SDS011;10975;47.872;12.972;2024-01-10T12:24:33;75.53;;;31.20;;
21626;SDS011;10975;47.872;12.972;2024-01-10T12:27:04;80.27;;;32.70;;
21626;SDS011;10975;47.872;12.972;2024-01-10T12:29:31;78.30;;;30.17;;
21626;SDS011;10975;47.872;12.972;2024-01-10T12:31:59;80.00;;;32.72;;
21626;SDS011;10975;47.872;12.972;2024-01-10T12:34:26;82.35;;;29.80;;
21626;SDS011;10975;47.872;12.972;2024-01-10T12:36:56;75.38;;;29.02;;
21626;SDS011;10975;47.872;12.972;2024-01-10T12:39:23;50.25;;;22.63;;
21626;SDS011;10975;47.872;12.972;2024-01-10T12:41:51;74.40;;;30.67;;
21626;SDS011;10975;47.872;12.972;2024-01-10T12:44:18;74.97;;;29.48;;
21626;SDS011;10975;47.872;12.972;2024-01-10T12:46:49;66.20;;;25.67;;
21626;SDS011;10975;47.872;12.972;2024-01-10T12:49:18;78.28;;;30.45;;
21626;SDS011;10975;47.872;12.972;2024-01-10T12:51:46;76.40;;;31.23;;
21626;SDS011;10975;47.872;12.972;2024-01-10T12:54:14;74.13;;;30.63;;
21626;SDS011;10975;47.872;12.972;2024-01-10T12:56:43;74.32;;;30.45;;
21626;SDS011;10975;47.872;12.972;2024-01-10T12:59:10;67.30;;;27.80;;
21626;SDS011;10975;47.872;12.972;2024-01-10T13:01:37;74.85;;;30.50;;
21626;SDS011;10975;47.872;12.972;2024-01-10T13:04:04;71.95;;;29.52;;
21626;SDS011;10975;47.872;12.972;2024-01-10T13:06:34;70.88;;;26.92;;
21626;SDS011;10975;47.872;12.972;2024-01-10T13:09:02;68.10;;;25.77;;
21626;SDS011;10975;47.872;12.972;2024-01-10T13:11:29;71.85;;;28.35;;
21626;SDS011;10975;47.872;12.972;2024-01-10T13:13:56;72.82;;;26.85;;
21626;SDS011;10975;47.872;12.972;2024-01-10T13:16:23;77.30;;;30.75;;
21626;SDS011;10975;47.872;12.972;2024-01-10T13:18:51;82.03;;;31.77;;
21626;SDS011;10975;47.872;12.972;2024-01-10T13:21:20;83.40;;;31.45;;
21626;SDS011;10975;47.872;12.972;2024-01-10T13:23:46;70.80;;;27.58;;
21626;SDS011;10975;47.872;12.972;2024-01-10T13:26:14;63.70;;;22.95;;
21626;SDS011;10975;47.872;12.972;2024-01-10T13:28:41;78.50;;;29.95;;
21626;SDS011;10975;47.872;12.972;2024-01-10T13:31:09;64.30;;;25.27;;
21626;SDS011;10975;47.872;12.972;2024-01-10T13:33:36;74.93;;;28.70;;
21626;SDS011;10975;47.872;12.972;2024-01-10T13:36:12;69.78;;;27.35;;
21626;SDS011;10975;47.872;12.972;2024-01-10T13:38:39;80.38;;;29.27;;
21626;SDS011;10975;47.872;12.972;2024-01-10T13:41:06;85.70;;;32.63;;
21626;SDS011;10975;47.872;12.972;2024-01-10T13:43:33;74.18;;;27.52;;
21626;SDS011;10975;47.872;12.972;2024-01-10T13:46:00;79.43;;;28.15;;
21626;SDS011;10975;47.872;12.972;2024-01-10T13:48:33;84.55;;;30.80;;
21626;SDS011;10975;47.872;12.972;2024-01-10T13:51:00;90.03;;;31.00;;
21626;SDS011;10975;47.872;12.972;2024-01-10T13:53:27;83.82;;;31.48;;
21626;SDS011;10975;47.872;12.972;2024-01-10T13:55:54;82.28;;;29.85;;
21626;SDS011;10975;47.872;12.972;2024-01-10T13:58:21;89.65;;;31.55;;
21626;SDS011;10975;47.872;12.972;2024-01-10T14:00:50;78.72;;;30.30;;
21626;SDS011;10975;47.872;12.972;2024-01-10T14:03:17;70.28;;;28.52;;
21626;SDS011;10975;47.872;12.972;2024-01-10T14:05:45;76.68;;;29.90;;
21626;SDS011;10975;47.872;12.972;2024-01-10T14:08:12;77.35;;;29.77;;
21626;SDS011;10975;47.872;12.972;2024-01-10T14:10:38;77.30;;;27.75;;
21626;SDS011;10975;47.872;12.972;2024-01-10T14:13:06;69.70;;;28.65;;
21626;SDS011;10975;47.872;12.972;2024-01-10T14:15:33;55.88;;;21.23;;
21626;SDS011;10975;47.872;12.972;2024-01-10T14:18:00;84.13;;;32.00;;
21626;SDS011;10975;47.872;12.972;2024-01-10T14:20:27;77.97;;;29.65;;
21626;SDS011;10975;47.872;12.972;2024-01-10T14:22:54;81.30;;;30.02;;
21626;SDS011;10975;47.872;12.972;2024-01-10T14:25:21;84.68;;;31.25;;
21626;SDS011;10975;47.872;12.972;2024-01-10T14:27:48;85.15;;;32.03;;
21626;SDS011;10975;47.872;12.972;2024-01-10T14:30:15;92.25;;;32.45;;
21626;SDS011;10975;47.872;12.972;2024-01-10T14:32:42;86.00;;;30.25;;